createdAt,value
2019-05-06T00:00:59.538Z,89.24
2019-05-06T00:01:58.172Z,90.00
2019-05-06T00:02:58.084Z,90.76
2019-05-06T00:04:00.867Z,91.24
2019-05-06T00:04:57.911Z,91.61
2019-05-06T00:05:57.824Z,92.28
2019-05-06T00:06:57.737Z,92.09
2019-05-06T00:07:57.659Z,91.99
2019-05-06T00:08:57.567Z,92.09
2019-05-06T00:09:57.480Z,91.99
2019-05-06T00:10:57.394Z,92.09
2019-05-06T00:11:57.311Z,92.09
2019-05-06T00:12:57.226Z,91.52
2019-05-06T00:13:57.138Z,92.85
2019-05-06T00:14:57.052Z,93.41
2019-05-06T00:15:56.968Z,93.70
2019-05-06T00:16:58.644Z,93.51
2019-05-06T00:17:56.805Z,94.08
2019-05-06T00:18:56.710Z,94.93
2019-05-06T00:19:57.113Z,94.84
2019-05-06T00:20:57.558Z,93.99
2019-05-06T00:21:56.453Z,94.18
2019-05-06T00:22:56.370Z,93.23
2019-05-06T00:23:56.280Z,92.94
2019-05-06T00:24:56.198Z,93.04
2019-05-06T00:25:56.114Z,94.56
2019-05-06T00:26:57.629Z,94.65
2019-05-06T00:27:55.943Z,94.84
2019-05-06T00:28:55.857Z,95.98
2019-05-06T00:29:55.776Z,95.89
2019-05-06T00:31:08.619Z,95.89
2019-05-06T00:31:55.601Z,95.03
2019-05-06T00:32:55.514Z,95.51
2019-05-06T00:33:55.430Z,95.22
2019-05-06T00:34:55.344Z,95.12
2019-05-06T00:35:55.258Z,95.03
2019-05-06T00:36:55.171Z,94.18
2019-05-06T00:37:55.096Z,93.41
2019-05-06T00:38:55.000Z,92.85
2019-05-06T00:39:54.916Z,92.66
2019-05-06T00:40:54.832Z,92.66
2019-05-06T00:41:54.745Z,92.28
2019-05-06T00:42:54.663Z,92.56
2019-05-06T00:43:54.764Z,92.56
2019-05-06T00:44:54.485Z,92.47
2019-05-06T00:45:54.426Z,92.18
2019-05-06T00:46:54.634Z,92.66
2019-05-06T00:47:54.232Z,92.94
2019-05-06T00:48:54.416Z,92.47
2019-05-06T00:49:54.662Z,91.89
2019-05-06T00:50:53.970Z,91.14
2019-05-06T00:51:55.001Z,90.38
2019-05-06T00:52:54.012Z,89.43
2019-05-06T00:53:54.380Z,89.53
2019-05-06T00:54:54.701Z,89.43
2019-05-06T00:55:53.877Z,89.62
2019-05-06T00:56:54.142Z,89.24
2019-05-06T00:57:54.443Z,89.90
2019-05-06T00:58:54.406Z,91.52
2019-05-06T00:59:53.847Z,92.75
2019-05-06T01:00:53.818Z,94.27
2019-05-06T01:01:53.892Z,95.70
2019-05-06T01:02:54.222Z,95.84
2019-05-06T01:03:53.685Z,96.59
2019-05-06T01:04:54.140Z,96.36
2019-05-06T01:05:54.222Z,96.88
2019-05-06T01:06:54.502Z,97.12
2019-05-06T01:07:54.730Z,95.51
2019-05-06T01:08:54.319Z,95.22
2019-05-06T01:09:54.158Z,94.93
2019-05-06T01:10:54.297Z,94.65
2019-05-06T01:11:54.076Z,93.99
2019-05-06T01:12:54.345Z,93.23
2019-05-06T01:13:52.008Z,93.60
2019-05-06T01:14:54.364Z,93.89
2019-05-06T01:15:51.826Z,94.37
2019-05-06T01:16:51.738Z,95.70
2019-05-06T01:17:53.739Z,95.12
2019-05-06T01:18:51.567Z,95.31
2019-05-06T01:19:53.959Z,95.03
2019-05-06T01:20:51.393Z,94.74
2019-05-06T01:21:51.309Z,95.03
2019-05-06T01:22:51.222Z,94.93
2019-05-06T01:23:51.139Z,94.56
2019-05-06T01:24:51.061Z,93.46
2019-05-06T01:25:50.966Z,93.46
2019-05-06T01:26:50.878Z,93.65
2019-05-06T01:27:50.794Z,93.75
2019-05-06T01:28:50.709Z,92.80
2019-05-06T01:29:50.623Z,92.80
2019-05-06T01:30:50.534Z,92.14
2019-05-06T01:31:50.452Z,91.75
2019-05-06T01:32:50.363Z,91.75
2019-05-06T01:33:50.291Z,92.71
2019-05-06T01:34:50.195Z,92.52
2019-05-06T01:35:50.106Z,93.08
2019-05-06T01:36:50.024Z,93.94
2019-05-06T01:37:49.939Z,94.79
2019-05-06T01:38:49.848Z,95.07
2019-05-06T01:39:49.757Z,94.98
2019-05-06T01:40:49.673Z,95.07
2019-05-06T01:41:49.593Z,95.93
2019-05-06T01:42:49.503Z,95.46
2019-05-06T01:43:49.419Z,95.46
2019-05-06T01:44:49.332Z,95.65
2019-05-06T01:45:49.242Z,95.93
2019-05-06T01:46:49.158Z,95.84
2019-05-06T01:47:49.071Z,96.03
2019-05-06T01:48:48.988Z,96.31
2019-05-06T01:49:48.898Z,96.78
2019-05-06T01:50:48.812Z,96.88
2019-05-06T01:51:48.726Z,96.97
2019-05-06T01:52:48.637Z,96.78
2019-05-06T01:53:48.552Z,96.97
2019-05-06T01:54:48.470Z,97.36
2019-05-06T01:55:48.380Z,96.88
2019-05-06T01:56:48.294Z,96.59
2019-05-06T01:57:48.206Z,96.97
2019-05-06T01:58:48.125Z,96.59
2019-05-06T01:59:48.034Z,96.78
2019-05-06T02:00:47.947Z,95.74
2019-05-06T02:02:47.788Z,95.65
2019-05-06T02:03:47.686Z,95.17
2019-05-06T02:04:47.604Z,95.55
2019-05-06T02:05:47.522Z,95.27
2019-05-06T02:06:47.429Z,94.98
2019-05-06T02:07:47.341Z,95.65
2019-05-06T02:08:47.255Z,95.55
2019-05-06T02:09:47.169Z,95.84
2019-05-06T02:10:47.120Z,95.84
2019-05-06T02:11:48.010Z,95.27
2019-05-06T02:12:46.907Z,95.17
2019-05-06T02:13:46.824Z,94.98
2019-05-06T02:14:46.737Z,95.84
2019-05-06T02:15:46.648Z,96.88
2019-05-06T02:16:46.561Z,96.31
2019-05-06T02:17:46.613Z,97.83
2019-05-06T02:18:46.389Z,96.78
2019-05-06T02:19:46.303Z,96.55
2019-05-06T02:20:46.215Z,97.59
2019-05-06T02:21:46.128Z,98.44
2019-05-06T02:22:46.048Z,98.63
2019-05-06T02:23:45.958Z,99.68
2019-05-06T02:24:45.870Z,99.77
2019-05-06T02:25:45.784Z,99.99
2019-05-06T02:26:45.696Z,99.99
2019-05-06T02:27:45.615Z,99.99
2019-05-06T02:28:45.525Z,99.99
2019-05-06T02:29:45.442Z,99.99
2019-05-06T02:30:45.610Z,99.77
2019-05-06T02:31:46.143Z,99.20
2019-05-06T02:32:45.413Z,99.01
2019-05-06T02:33:45.095Z,98.25
2019-05-06T02:34:45.889Z,97.02
2019-05-06T02:35:45.577Z,97.07
2019-05-06T02:36:45.546Z,96.41
2019-05-06T02:37:46.444Z,95.93
2019-05-06T02:38:48.025Z,95.46
2019-05-06T02:39:44.579Z,95.03
2019-05-06T02:40:44.493Z,95.07
2019-05-06T02:41:44.402Z,95.17
2019-05-06T02:42:44.316Z,95.12
2019-05-06T02:43:44.227Z,95.03
2019-05-06T02:44:44.497Z,95.79
2019-05-06T02:45:44.057Z,95.98
2019-05-06T02:46:44.265Z,96.64
2019-05-06T02:47:43.881Z,96.45
2019-05-06T02:48:43.796Z,97.31
2019-05-06T02:49:44.411Z,97.02
2019-05-06T02:50:43.620Z,97.59
2019-05-06T02:51:44.237Z,97.40
2019-05-06T02:52:44.196Z,97.12
2019-05-06T02:53:43.363Z,97.50
2019-05-06T02:54:43.287Z,98.16
2019-05-06T02:55:43.212Z,98.97
2019-05-06T02:56:43.706Z,98.25
2019-05-06T02:57:43.874Z,98.35
2019-05-06T02:58:43.659Z,97.59
2019-05-06T02:59:44.150Z,98.02
2019-05-06T03:00:43.211Z,97.83
2019-05-06T03:01:43.379Z,97.50
2019-05-06T03:02:46.863Z,97.59
2019-05-06T03:03:43.667Z,97.21
2019-05-06T03:04:43.772Z,97.78
2019-05-06T03:05:44.013Z,98.07
2019-05-06T03:06:44.689Z,98.16
2019-05-06T03:07:43.487Z,97.97
2019-05-06T03:08:43.501Z,98.25
2019-05-06T03:09:44.484Z,97.88
2019-05-06T03:10:44.227Z,97.88
2019-05-06T03:11:43.787Z,96.83
2019-05-06T03:12:43.004Z,97.45
2019-05-06T03:13:43.786Z,97.64
2019-05-06T03:14:43.643Z,97.12
2019-05-06T03:15:43.388Z,97.50
2019-05-06T03:16:43.929Z,97.31
2019-05-06T03:17:43.514Z,97.59
2019-05-06T03:18:43.322Z,97.31
2019-05-06T03:19:45.702Z,97.31
2019-05-06T03:20:43.888Z,97.50
2019-05-06T03:21:44.510Z,96.73
2019-05-06T03:22:43.515Z,96.64
2019-05-06T03:23:43.365Z,95.98
2019-05-06T03:24:43.430Z,95.79
2019-05-06T03:25:43.737Z,96.73
2019-05-06T03:26:43.756Z,97.12
2019-05-06T03:27:46.498Z,97.40
2019-05-06T03:28:40.322Z,96.92
2019-05-06T03:29:40.234Z,97.31
2019-05-06T03:30:45.247Z,97.50
2019-05-06T03:31:41.327Z,97.59
2019-05-06T03:33:14.188Z,97.78
2019-05-06T03:33:58.440Z,97.59
2019-05-06T03:35:00.591Z,97.31
2019-05-06T03:35:55.987Z,97.69
2019-05-06T03:36:42.250Z,97.88
2019-05-06T03:37:39.538Z,97.21
2019-05-06T03:38:39.453Z,98.25
2019-05-06T03:39:39.368Z,98.16
2019-05-06T03:40:41.922Z,98.07
